Time;durP1;ratioP1;P1;durP2;ratioP2;P2;SDS_P1;SDS_P2;PMS_P1;PMS_P2;Temp;Humidity;BMP_temperature;BMP_pressure;BME280_temperature;BME280_humidity;BME280_pressure;Samples;Min_cycle;Max_cycle;Signal;HPM_P1;HPM_P2
2021/01/14 06:16:47;;;;;;;8.53;4.53;;;1.20;99.90;;;;;;6246829;23;20042;-86
2021/01/14 06:19:13;;;;;;;9.33;4.83;;;1.20;99.90;;;;;;6260096;23;20019;-88
2021/01/14 06:21:49;;;;;;;9.17;5.30;;;1.30;99.90;;;;;;6250147;22;20019;-87
2021/01/14 06:24:24;;;;;;;12.13;4.73;;;1.20;99.90;;;;;;6218728;23;20027;-87
2021/01/14 06:27:04;;;;;;;10.60;5.67;;;1.20;99.90;;;;;;6243816;23;20004;-87
2021/01/14 06:29:30;;;;;;;9.43;4.93;;;1.20;99.90;;;;;;6245379;23;20012;-88
2021/01/14 06:32:10;;;;;;;8.10;4.80;;;1.20;99.90;;;;;;6244499;22;20001;-87
2021/01/14 06:34:40;;;;;;;12.27;5.00;;;1.30;99.90;;;;;;6244898;23;20028;-87
2021/01/14 06:37:12;;;;;;;8.77;4.73;;;1.30;99.90;;;;;;6245427;23;20431;-87
2021/01/14 06:39:57;;;;;;;6.93;3.50;;;1.30;99.90;;;;;;6246007;23;20008;-86
2021/01/14 06:42:29;;;;;;;7.97;4.93;;;1.30;99.90;;;;;;6245107;22;20004;-86
2021/01/14 06:45:09;;;;;;;8.75;4.90;;;1.30;99.90;;;;;;6245021;23;20004;-87
2021/01/14 06:47:42;;;;;;;9.20;4.80;;;1.30;99.90;;;;;;6243593;23;20582;-88
2021/01/14 06:50:17;;;;;;;8.23;4.87;;;1.40;99.90;;;;;;6244169;22;20004;-87
2021/01/14 06:52:51;;;;;;;7.67;4.50;;;1.40;99.90;;;;;;6244362;23;20343;-87
2021/01/14 06:55:20;;;;;;;11.63;5.57;;;1.30;99.90;;;;;;6242145;22;20079;-87
2021/01/14 06:58:15;;;;;;;10.90;5.63;;;1.30;99.90;;;;;;6243537;23;19999;-87
2021/01/14 07:00:45;;;;;;;8.63;5.03;;;1.30;99.90;;;;;;6243648;22;20008;-87
2021/01/14 07:03:19;;;;;;;10.17;4.97;;;1.30;99.90;;;;;;6244699;23;20003;-87
2021/01/14 07:05:58;;;;;;;9.30;5.17;;;1.40;99.90;;;;;;6244506;23;20054;-92
2021/01/14 07:08:40;;;;;;;11.30;4.73;;;1.30;99.90;;;;;;6244258;23;20008;-87
2021/01/14 07:11:11;;;;;;;11.60;5.97;;;1.30;99.90;;;;;;6244775;22;20040;-87
2021/01/14 07:13:48;;;;;;;8.60;4.87;;;1.30;99.90;;;;;;6244596;23;20088;-87
2021/01/14 07:16:18;;;;;;;17.57;6.37;;;1.30;99.90;;;;;;6245220;23;20066;-87
2021/01/14 07:18:45;;;;;;;11.27;5.30;;;1.30;99.90;;;;;;6246323;22;20000;-87
2021/01/14 07:21:15;;;;;;;10.37;5.50;;;1.20;99.90;;;;;;6244601;22;20070;-86
2021/01/14 07:24:08;;;;;;;10.23;5.47;;;1.20;99.90;;;;;;6244513;23;20489;-89
2021/01/14 07:26:36;;;;;;;9.23;5.93;;;1.20;99.90;;;;;;6244794;23;20004;-87
2021/01/14 07:29:06;;;;;;;9.87;5.93;;;1.20;99.90;;;;;;6244685;23;20015;-87
2021/01/14 07:31:31;;;;;;;9.77;5.93;;;1.20;99.90;;;;;;6244837;22;20083;-87
2021/01/14 07:34:31;;;;;;;14.00;6.50;;;1.20;99.90;;;;;;6245169;22;20419;-88
2021/01/14 07:36:57;;;;;;;10.80;6.33;;;1.10;99.90;;;;;;6244849;22;20301;-87
2021/01/14 07:39:46;;;;;;;13.10;6.43;;;1.20;99.90;;;;;;6244915;23;20019;-86
2021/01/14 07:42:23;;;;;;;13.73;6.83;;;1.20;99.90;;;;;;6246040;22;20091;-88
2021/01/14 07:44:50;;;;;;;11.13;5.80;;;1.20;99.90;;;;;;6245069;23;20443;-87
2021/01/14 07:47:23;;;;;;;9.03;6.23;;;1.20;99.90;;;;;;6244777;23;20004;-88
2021/01/14 07:49:48;;;;;;;10.50;5.70;;;1.20;99.90;;;;;;6244668;23;20424;-87
2021/01/14 07:52:30;;;;;;;10.50;6.80;;;1.20;99.90;;;;;;6244543;22;20001;-88
2021/01/14 07:55:05;;;;;;;10.40;6.20;;;1.30;99.90;;;;;;6244881;23;20008;-91
2021/01/14 07:57:54;;;;;;;11.50;6.73;;;1.30;99.90;;;;;;6244442;23;20004;-91
2021/01/14 08:00:21;;;;;;;10.73;6.30;;;1.30;99.90;;;;;;6218294;22;20004;-92
2021/01/14 08:03:06;;;;;;;11.97;6.83;;;1.30;99.90;;;;;;6245098;23;20000;-91
2021/01/14 08:05:58;;;;;;;11.20;6.60;;;1.30;99.90;;;;;;6246155;23;20083;-91
2021/01/14 08:08:33;;;;;;;14.83;7.37;;;1.30;99.90;;;;;;6244499;23;20011;-92
2021/01/14 08:11:08;;;;;;;12.17;6.50;;;1.20;99.90;;;;;;6243808;22;20000;-92
2021/01/14 08:13:59;;;;;;;11.30;5.83;;;1.20;99.90;;;;;;6244271;23;20008;-92
2021/01/14 08:16:38;;;;;;;11.77;6.87;;;1.20;99.90;;;;;;6243749;22;20060;-91
2021/01/14 08:19:32;;;;;;;11.53;5.97;;;1.20;99.90;;;;;;6244162;23;20015;-91
2021/01/14 08:21:58;;;;;;;11.13;6.33;;;1.20;99.90;;;;;;6239045;22;20063;-91
2021/01/14 08:25:02;;;;;;;16.37;7.13;;;1.20;99.90;;;;;;6244078;23;20427;-92
2021/01/14 08:27:37;;;;;;;13.07;7.23;;;1.20;99.90;;;;;;6245742;23;20004;-91
2021/01/14 08:30:12;;;;;;;10.17;6.03;;;1.20;99.90;;;;;;6219218;22;20004;-91
2021/01/14 08:32:50;;;;;;;12.67;5.97;;;1.20;99.90;;;;;;6247409;23;20487;-92
2021/01/14 08:40:31;;;;;;;10.43;6.17;;;1.20;99.90;;;;;;6268412;22;20031;-95
2021/01/14 08:43:13;;;;;;;8.63;4.80;;;1.20;99.90;;;;;;6270082;22;19996;-94
2021/01/14 08:45:55;;;;;;;10.27;4.53;;;1.20;99.90;;;;;;6241408;23;19980;-93
2021/01/14 08:48:26;;;;;;;9.85;4.35;;;1.20;99.90;;;;;;6269430;23;20035;-94
2021/01/14 08:50:55;;;;;;;10.37;3.73;;;1.30;99.90;;;;;;6270389;23;19984;-94
2021/01/14 08:53:27;;;;;;;11.57;5.07;;;1.30;99.90;;;;;;6267326;22;19976;-93
2021/01/14 08:56:01;;;;;;;9.82;4.00;;;1.40;99.90;;;;;;6269928;23;19987;-94
2021/01/14 08:58:38;;;;;;;9.03;4.83;;;1.30;99.90;;;;;;6269256;23;19995;-93
2021/01/14 09:01:09;;;;;;;10.70;4.10;;;1.30;99.90;;;;;;6267341;23;19996;-94
2021/01/14 09:03:35;;;;;;;9.23;4.23;;;1.30;99.90;;;;;;6269498;22;19999;-95
2021/01/14 09:06:01;;;;;;;11.03;4.97;;;1.30;99.90;;;;;;6263982;23;20063;-94
2021/01/14 09:08:27;;;;;;;9.57;5.33;;;1.30;99.90;;;;;;6268289;23;20006;-95
2021/01/14 09:10:55;;;;;;;12.33;4.80;;;1.30;99.90;;;;;;6268587;23;19984;-94
2021/01/14 09:13:31;;;;;;;9.47;5.00;;;1.30;99.90;;;;;;6268543;22;19984;-93
2021/01/14 09:16:05;;;;;;;9.50;5.30;;;1.30;99.90;;;;;;6267698;23;19984;-94
2021/01/14 09:18:39;;;;;;;9.93;5.60;;;1.40;99.90;;;;;;6269287;23;20047;-94
2021/01/14 09:21:05;;;;;;;11.57;6.03;;;1.30;99.90;;;;;;6268754;23;20015;-94
2021/01/14 09:23:36;;;;;;;15.23;6.20;;;1.30;99.90;;;;;;6269342;22;19988;-95
2021/01/14 09:26:13;;;;;;;13.73;6.63;;;1.30;99.90;;;;;;6265505;23;19984;-95
2021/01/14 09:28:40;;;;;;;10.77;6.00;;;1.30;99.90;;;;;;6268753;23;19988;-95
2021/01/14 09:31:35;;;;;;;19.17;7.70;;;1.20;99.90;;;;;;6266751;23;19984;-93
2021/01/14 09:34:22;;;;;;;11.77;5.90;;;1.30;99.90;;;;;;6269989;22;19984;-94
2021/01/14 09:36:51;;;;;;;12.37;6.37;;;1.30;99.90;;;;;;6266887;23;19984;-94
2021/01/14 09:39:17;;;;;;;12.00;6.27;;;1.40;99.90;;;;;;6268678;23;20007;-93
2021/01/14 09:41:43;;;;;;;13.27;6.37;;;1.40;99.90;;;;;;6270038;23;19988;-94
2021/01/14 09:44:25;;;;;;;16.83;6.47;;;1.40;99.90;;;;;;6270538;22;20164;-93
2021/01/14 09:46:52;;;;;;;9.48;6.03;;;1.50;99.90;;;;;;6271276;23;20027;-93
2021/01/14 09:54:30;;;;;;;10.83;6.30;;;1.50;99.90;;;;;;6302493;22;20055;-95
2021/01/14 09:56:58;;;;;;;14.07;6.40;;;1.50;99.90;;;;;;6277309;22;19995;-94
2021/01/14 09:59:47;;;;;;;11.97;6.50;;;1.50;99.90;;;;;;6277531;22;19988;-94
2021/01/14 10:02:31;;;;;;;12.77;6.10;;;1.50;99.90;;;;;;6273810;22;19988;-94
2021/01/14 10:05:13;;;;;;;11.50;5.20;;;1.40;99.90;;;;;;6301106;22;20035;-94
2021/01/14 10:07:43;;;;;;;10.83;4.80;;;1.40;99.90;;;;;;6302859;22;20006;-94
2021/01/14 10:10:09;;;;;;;10.37;4.87;;;1.50;99.90;;;;;;6275528;22;20011;-95
2021/01/14 10:12:34;;;;;;;10.87;4.80;;;1.50;99.90;;;;;;6276981;22;19991;-95
2021/01/14 10:15:14;;;;;;;10.63;4.87;;;1.50;99.90;;;;;;6276123;22;19995;-93
2021/01/14 10:17:43;;;;;;;9.77;4.80;;;1.50;99.90;;;;;;6275096;22;19995;-94
2021/01/14 10:25:20;;;;;;;13.73;4.53;;;1.50;99.90;;;;;;6269050;22;20212;-94
2021/01/14 10:28:00;;;;;;;7.77;4.40;;;1.40;99.90;;;;;;6244653;23;19992;-93
2021/01/14 10:30:27;;;;;;;9.67;4.27;;;1.50;99.90;;;;;;6245509;23;19988;-93
2021/01/14 10:33:01;;;;;;;15.03;5.80;;;1.50;99.90;;;;;;6245573;23;19984;-93
2021/01/14 10:35:29;;;;;;;11.23;4.70;;;1.50;99.90;;;;;;6245041;23;20011;-93
2021/01/14 10:38:06;;;;;;;8.40;4.33;;;1.50;99.90;;;;;;6245446;23;20032;-94
2021/01/14 10:40:35;;;;;;;9.17;4.37;;;1.50;99.90;;;;;;6245608;23;19988;-93
2021/01/14 10:43:01;;;;;;;9.23;4.43;;;1.50;99.90;;;;;;6246172;23;19998;-94
2021/01/14 10:45:29;;;;;;;7.43;4.13;;;1.50;99.90;;;;;;6246410;23;20006;-94
2021/01/14 10:48:15;;;;;;;11.63;4.60;;;1.50;99.90;;;;;;6246126;23;20011;-95
2021/01/14 10:50:48;;;;;;;10.40;4.93;;;1.60;99.90;;;;;;6241085;23;19980;-93
2021/01/14 10:53:44;;;;;;;8.17;4.00;;;1.60;99.90;;;;;;6244532;23;19980;-94
2021/01/14 10:56:19;;;;;;;9.93;3.90;;;1.60;99.90;;;;;;6215451;22;20051;-94
2021/01/14 10:58:55;;;;;;;10.93;4.40;;;1.60;99.90;;;;;;6242345;22;20158;-93
2021/01/14 11:01:21;;;;;;;9.87;4.00;;;1.60;99.90;;;;;;6243550;22;20012;-94
2021/01/14 11:03:48;;;;;;;12.73;4.53;;;1.70;99.90;;;;;;6242427;22;20011;-94
2021/01/14 11:06:35;;;;;;;9.83;5.03;;;1.60;99.90;;;;;;6242224;22;20274;-94
2021/01/14 11:09:06;;;;;;;9.50;5.17;;;1.60;99.90;;;;;;6242577;22;20073;-94
2021/01/14 11:11:33;;;;;;;14.55;5.85;;;1.60;99.90;;;;;;6240500;22;19996;-92
2021/01/14 11:13:59;;;;;;;11.17;5.37;;;1.70;99.90;;;;;;6243052;22;19992;-93
2021/01/14 11:16:26;;;;;;;13.83;5.17;;;1.70;99.90;;;;;;6241687;22;20011;-93
2021/01/14 11:18:54;;;;;;;13.20;5.53;;;1.70;99.90;;;;;;6241818;22;19988;-92
2021/01/14 11:21:30;;;;;;;15.07;4.97;;;1.70;99.90;;;;;;6242652;22;20011;-93
2021/01/14 11:23:57;;;;;;;9.47;5.17;;;1.60;99.90;;;;;;6241521;22;20007;-93
2021/01/14 11:26:24;;;;;;;13.20;5.60;;;1.70;99.90;;;;;;6266637;22;20047;-94
2021/01/14 11:28:50;;;;;;;8.47;5.23;;;1.60;99.90;;;;;;6268718;22;20034;-92
2021/01/14 11:31:21;;;;;;;13.50;5.40;;;1.50;99.90;;;;;;6268744;22;20047;-94
2021/01/14 11:33:47;;;;;;;9.70;5.30;;;1.70;99.90;;;;;;6268005;22;19992;-94
2021/01/14 11:36:14;;;;;;;10.87;5.77;;;1.70;99.90;;;;;;6263782;22;20019;-93
2021/01/14 11:38:43;;;;;;;9.93;5.30;;;1.60;99.90;;;;;;6236615;22;19996;-91
2021/01/14 11:41:09;;;;;;;10.50;5.77;;;1.60;99.90;;;;;;6265115;22;20023;-92
2021/01/14 11:43:36;;;;;;;9.80;6.00;;;1.60;99.90;;;;;;6267640;22;20019;-94
2021/01/14 11:46:03;;;;;;;11.17;5.37;;;1.60;99.90;;;;;;6260829;22;20054;-95
2021/01/14 11:48:28;;;;;;;13.80;5.87;;;1.70;99.90;;;;;;6232006;22;20015;-94
2021/01/14 11:50:54;;;;;;;12.53;6.20;;;1.70;99.90;;;;;;6241596;22;20000;-94
2021/01/14 11:53:20;;;;;;;11.93;5.87;;;1.70;99.90;;;;;;6240662;23;20019;-90
2021/01/14 11:55:45;;;;;;;13.67;6.50;;;1.70;99.90;;;;;;6239712;22;20003;-92
2021/01/14 11:58:12;;;;;;;9.47;5.43;;;1.80;99.90;;;;;;6239114;23;20016;-91
2021/01/14 12:00:38;;;;;;;12.33;5.53;;;1.80;99.90;;;;;;6239442;23;20019;-92
2021/01/14 12:03:06;;;;;;;16.03;6.10;;;1.80;99.90;;;;;;6234403;22;20030;-91
2021/01/14 12:08:07;;;;;;;10.80;5.60;;;1.90;99.90;;;;;;6266551;22;20027;-91
2021/01/14 12:10:33;;;;;;;14.53;5.80;;;1.90;99.90;;;;;;6260935;22;20283;-91
2021/01/14 12:12:59;;;;;;;12.50;5.60;;;1.90;99.90;;;;;;6256416;22;20023;-92
2021/01/14 12:15:24;;;;;;;14.63;5.60;;;2.00;99.90;;;;;;6262459;22;20008;-92
2021/01/14 12:17:50;;;;;;;11.23;5.57;;;2.00;99.90;;;;;;6268002;22;20055;-91
2021/01/14 12:20:16;;;;;;;11.40;5.73;;;2.10;99.90;;;;;;6267623;22;19992;-92
2021/01/14 12:22:43;;;;;;;10.20;5.47;;;2.20;99.90;;;;;;6267319;22;20127;-92
2021/01/14 12:25:10;;;;;;;9.97;5.23;;;2.20;99.90;;;;;;6263557;22;20067;-92
2021/01/14 12:27:37;;;;;;;12.13;5.27;;;2.10;99.90;;;;;;6265702;22;20015;-92
2021/01/14 12:30:13;;;;;;;9.83;4.77;;;2.10;99.90;;;;;;6259207;22;20012;-94
2021/01/14 12:32:39;;;;;;;10.37;5.63;;;2.10;99.90;;;;;;6267161;22;19992;-92
2021/01/14 12:35:07;;;;;;;12.53;5.00;;;2.20;99.90;;;;;;6267639;22;20000;-92
2021/01/14 12:37:38;;;;;;;12.63;5.83;;;2.30;99.90;;;;;;6268281;22;20001;-93
2021/01/14 12:40:07;;;;;;;9.33;4.50;;;2.20;99.90;;;;;;6268315;22;20022;-94
2021/01/14 12:42:33;;;;;;;14.23;5.07;;;2.20;99.90;;;;;;6241703;22;20043;-93
2021/01/14 12:45:03;;;;;;;7.37;4.50;;;2.10;99.90;;;;;;6266759;22;20067;-92
2021/01/14 12:47:29;;;;;;;11.13;3.90;;;2.10;99.90;;;;;;6267995;22;20340;-92
2021/01/14 12:49:59;;;;;;;9.07;4.03;;;2.00;99.90;;;;;;6268663;22;20028;-93
2021/01/14 12:52:25;;;;;;;12.07;4.77;;;2.00;99.90;;;;;;6266152;22;20019;-92
2021/01/14 12:54:52;;;;;;;12.53;4.37;;;2.00;99.90;;;;;;6267355;22;20020;-93
2021/01/14 12:57:17;;;;;;;8.37;4.53;;;1.90;99.90;;;;;;6242320;22;19992;-93
2021/01/14 12:59:47;;;;;;;8.20;4.10;;;1.90;99.90;;;;;;6266844;22;20004;-93
2021/01/14 13:02:17;;;;;;;10.50;4.00;;;2.00;99.90;;;;;;6267037;22;20000;-93
2021/01/14 13:04:43;;;;;;;8.67;4.43;;;1.90;99.90;;;;;;6243802;22;20011;-92
2021/01/14 13:07:08;;;;;;;10.53;4.33;;;2.00;99.90;;;;;;6243209;22;20004;-93
2021/01/14 13:09:34;;;;;;;9.20;4.60;;;2.00;99.90;;;;;;6269062;22;20038;-94
2021/01/14 13:12:00;;;;;;;10.00;4.30;;;1.90;99.90;;;;;;6270128;22;19999;-92
2021/01/14 13:14:26;;;;;;;7.13;3.17;;;2.00;99.90;;;;;;6269363;22;20030;-92
2021/01/14 13:16:53;;;;;;;7.50;3.23;;;1.80;99.90;;;;;;6269256;22;20008;-93
2021/01/14 13:19:30;;;;;;;8.83;3.80;;;1.80;99.90;;;;;;6268407;22;20002;-94
2021/01/14 13:22:05;;;;;;;11.63;4.53;;;1.80;99.90;;;;;;6249915;22;20031;-92
2021/01/14 13:24:30;;;;;;;8.03;3.50;;;1.70;99.90;;;;;;6245240;22;20022;-93
2021/01/14 15:36:19;;;;;;;9.03;3.13;;;1.00;99.90;;;;;;5116298;27;791764;-91
2021/01/14 15:38:48;;;;;;;5.60;3.20;;;1.10;99.90;;;;;;5140901;27;20027;-92
2021/01/14 15:41:16;;;;;;;6.17;2.90;;;1.10;99.90;;;;;;5143192;27;20031;-96
2021/01/14 22:32:06;;;;;;;20.30;11.17;;;0.00;99.90;;;;;;5042532;28;20049;-95
